createdAt,value
2023-01-11T00:01:31.194Z,5.93
2023-01-11T00:04:00.045Z,5.75
2023-01-11T00:06:29.855Z,5.74
2023-01-11T00:08:59.497Z,5.71
2023-01-11T00:11:29.314Z,5.71
2023-01-11T00:13:57.221Z,5.72
2023-01-11T00:16:26.246Z,5.80
2023-01-11T00:18:54.703Z,5.87
2023-01-11T00:21:23.172Z,5.79
2023-01-11T00:23:51.361Z,5.77
2023-01-11T00:26:19.491Z,5.81
2023-01-11T00:28:53.515Z,5.80
2023-01-11T00:31:21.837Z,5.80
2023-01-11T00:33:50.069Z,5.78
2023-01-11T00:36:19.949Z,5.80
2023-01-11T00:38:51.462Z,5.71
2023-01-11T00:41:38.412Z,5.78
2023-01-11T00:44:27.848Z,5.69
2023-01-11T00:47:15.430Z,5.71
2023-01-11T00:49:44.511Z,5.74
2023-01-11T00:52:12.856Z,5.79
2023-01-11T00:54:42.288Z,5.76
2023-01-11T00:57:13.149Z,5.71
2023-01-11T00:59:46.040Z,5.79
2023-01-11T01:02:14.847Z,5.88
2023-01-11T01:04:45.538Z,6.01
2023-01-11T01:07:13.959Z,5.94
2023-01-11T01:09:46.428Z,5.94
2023-01-11T01:12:35.742Z,5.91
2023-01-11T01:15:06.039Z,5.78
2023-01-11T01:17:34.358Z,5.72
2023-01-11T01:20:02.604Z,5.72
2023-01-11T01:22:30.858Z,5.71
2023-01-11T01:24:59.452Z,5.70
2023-01-11T01:27:27.878Z,5.67
2023-01-11T01:29:56.665Z,5.66
2023-01-11T01:32:26.779Z,5.66
2023-01-11T01:34:55.089Z,5.72
2023-01-11T01:37:24.167Z,5.71
2023-01-11T01:39:52.541Z,5.74
2023-01-11T01:42:24.045Z,5.74
2023-01-11T01:45:04.187Z,5.83
2023-01-11T01:47:42.827Z,5.88
2023-01-11T01:50:18.175Z,5.96
2023-01-11T01:52:51.675Z,5.97
2023-01-11T01:55:26.440Z,5.93
2023-01-11T01:57:56.230Z,6.03
2023-01-11T02:00:24.465Z,5.99
2023-01-11T02:02:54.544Z,5.96
2023-01-11T02:05:22.986Z,6.03
2023-01-11T02:07:54.862Z,6.06
2023-01-11T02:10:24.242Z,6.01
2023-01-11T02:12:57.551Z,6.03
2023-01-11T02:15:26.559Z,6.04
2023-01-11T02:17:56.161Z,6.05
2023-01-11T02:20:55.491Z,6.15
2023-01-11T02:24:05.004Z,6.28
2023-01-11T02:26:48.709Z,6.24
2023-01-11T02:29:30.237Z,6.26
2023-01-11T02:32:11.536Z,6.28
2023-01-11T02:34:45.610Z,6.33
2023-01-11T02:37:28.841Z,6.24
2023-01-11T02:40:07.146Z,6.33
2023-01-11T02:42:56.467Z,6.27
2023-01-11T02:45:39.510Z,6.31
2023-01-11T02:48:17.783Z,6.31
2023-01-11T02:50:52.399Z,6.33
2023-01-11T02:53:27.332Z,6.37
2023-01-11T02:55:59.743Z,6.43
2023-01-11T02:58:31.037Z,6.42
2023-01-11T03:01:02.859Z,6.40
2023-01-11T03:03:33.721Z,6.43
2023-01-11T03:06:03.541Z,6.51
2023-01-11T03:08:44.711Z,6.48
2023-01-11T03:11:36.535Z,6.46
2023-01-11T03:14:14.077Z,6.55
2023-01-11T03:16:50.666Z,6.54
2023-01-11T03:19:29.720Z,6.55
2023-01-11T03:22:04.892Z,6.54
2023-01-11T03:24:41.688Z,6.60
2023-01-11T03:27:18.531Z,6.60
2023-01-11T03:29:53.372Z,6.69
2023-01-11T03:32:43.958Z,6.78
2023-01-11T03:35:20.185Z,6.75
2023-01-11T03:37:56.728Z,6.78
2023-01-11T03:40:29.535Z,6.82
2023-01-11T03:43:16.389Z,6.86
2023-01-11T03:45:51.107Z,6.88
2023-01-11T03:48:25.130Z,6.91
2023-01-11T03:50:56.458Z,6.88
2023-01-11T03:53:26.860Z,6.88
2023-01-11T03:55:58.660Z,6.93
2023-01-11T03:58:29.145Z,6.95
2023-01-11T04:00:58.263Z,7.07
2023-01-11T04:03:30.965Z,7.10
2023-01-11T04:06:02.308Z,7.06
2023-01-11T04:08:34.742Z,7.10
2023-01-11T04:11:04.920Z,7.12
2023-01-11T04:13:34.141Z,7.09
2023-01-11T04:16:02.405Z,7.07
2023-01-11T04:18:33.093Z,7.17
2023-01-11T04:21:03.037Z,7.17
2023-01-11T04:23:32.515Z,7.14
2023-01-11T04:26:02.837Z,7.09
2023-01-11T04:28:31.669Z,7.13
2023-01-11T04:31:02.697Z,7.10
2023-01-11T04:33:32.124Z,7.13
2023-01-11T04:36:06.000Z,7.15
2023-01-11T04:38:34.526Z,7.18
2023-01-11T04:41:23.803Z,7.21
2023-01-11T04:44:00.796Z,7.17
2023-01-11T04:46:30.696Z,7.20
2023-01-11T04:49:00.493Z,7.09
2023-01-11T04:51:29.327Z,7.15
2023-01-11T04:53:57.861Z,7.09
2023-01-11T04:56:26.922Z,7.05
2023-01-11T04:58:55.683Z,7.07
2023-01-11T05:01:23.990Z,7.08
2023-01-11T05:03:54.911Z,7.05
2023-01-11T05:06:26.542Z,7.07
2023-01-11T05:08:54.750Z,7.05
2023-01-11T05:11:22.986Z,7.04
2023-01-11T05:13:51.486Z,7.09
2023-01-11T05:16:23.686Z,7.12
2023-01-11T05:18:53.685Z,7.04
2023-01-11T05:21:24.146Z,7.11
2023-01-11T05:23:57.198Z,7.12
2023-01-11T05:26:33.859Z,7.11
2023-01-11T05:29:06.783Z,7.13
2023-01-11T05:31:39.414Z,7.09
2023-01-11T05:34:09.418Z,7.04
2023-01-11T05:36:41.509Z,7.09
2023-01-11T05:39:12.229Z,7.06
2023-01-11T05:41:40.514Z,7.10
2023-01-11T05:44:31.108Z,7.09
2023-01-11T05:47:00.727Z,7.07
2023-01-11T05:49:28.836Z,7.07
2023-01-11T05:51:57.379Z,7.08
2023-01-11T05:54:29.888Z,7.09
2023-01-11T05:56:59.686Z,7.09
2023-01-11T05:59:28.048Z,7.18
2023-01-11T06:01:57.759Z,7.19
2023-01-11T06:04:27.469Z,7.23
2023-01-11T06:06:56.658Z,7.22
2023-01-11T06:09:24.929Z,7.19
2023-01-11T06:11:54.995Z,7.21
2023-01-11T06:14:26.875Z,7.14
2023-01-11T06:16:54.880Z,7.21
2023-01-11T06:19:23.590Z,7.31
2023-01-11T06:21:57.355Z,7.29
2023-01-11T06:24:26.223Z,7.24
2023-01-11T06:26:56.477Z,7.19
2023-01-11T06:29:27.507Z,7.20
2023-01-11T06:31:58.381Z,7.24
2023-01-11T06:34:29.291Z,7.25
2023-01-11T06:36:57.996Z,7.26
2023-01-11T06:39:29.546Z,7.32
2023-01-11T06:41:59.474Z,7.29
2023-01-11T06:44:27.349Z,7.40
2023-01-11T06:46:56.039Z,7.36
2023-01-11T06:49:24.385Z,7.47
2023-01-11T06:51:53.600Z,7.42
2023-01-11T06:54:22.989Z,7.45
2023-01-11T06:56:53.812Z,7.47
2023-01-11T06:59:30.794Z,7.50
2023-01-11T07:02:00.125Z,7.55
2023-01-11T07:04:30.895Z,7.59
2023-01-11T07:07:00.576Z,7.60
2023-01-11T07:09:29.099Z,7.65
2023-01-11T07:11:57.676Z,7.66
2023-01-11T07:14:26.032Z,7.73
2023-01-11T07:16:56.212Z,7.79
2023-01-11T07:19:24.373Z,7.77
2023-01-11T07:21:52.821Z,7.82
2023-01-11T07:24:22.802Z,7.86
2023-01-11T07:26:51.206Z,7.88
2023-01-11T07:29:21.080Z,7.91
2023-01-11T07:31:49.527Z,7.94
2023-01-11T07:34:19.828Z,7.94
2023-01-11T07:36:47.922Z,8.01
2023-01-11T07:39:16.303Z,8.08
2023-01-11T07:42:02.777Z,8.06
2023-01-11T07:44:30.857Z,7.97
2023-01-11T07:46:59.492Z,8.08
2023-01-11T07:49:30.128Z,8.18
2023-01-11T07:51:58.236Z,8.16
2023-01-11T07:54:26.371Z,8.14
2023-01-11T07:56:56.550Z,8.14
2023-01-11T07:59:24.942Z,8.19
2023-01-11T08:01:54.820Z,8.19
2023-01-11T08:04:24.177Z,8.18
2023-01-11T08:06:54.701Z,8.26
2023-01-11T08:09:22.886Z,8.21
2023-01-11T08:12:08.881Z,8.31
2023-01-11T08:14:40.207Z,8.34
2023-01-11T08:17:08.752Z,8.36
2023-01-11T08:19:38.522Z,8.40
2023-01-11T08:22:12.157Z,8.43
2023-01-11T08:24:40.275Z,8.38
2023-01-11T08:27:08.693Z,8.39
2023-01-11T08:29:38.085Z,8.47
2023-01-11T08:32:06.744Z,8.48
2023-01-11T08:34:36.327Z,8.42
2023-01-11T08:37:05.518Z,8.40
2023-01-11T08:39:35.244Z,8.50
2023-01-11T08:42:04.124Z,8.51
2023-01-11T08:44:34.670Z,8.55
2023-01-11T08:47:04.230Z,8.52
2023-01-11T08:49:34.971Z,8.53
2023-01-11T08:52:03.377Z,8.54
2023-01-11T08:54:32.264Z,8.54
2023-01-11T08:57:03.524Z,8.55
2023-01-11T08:59:31.729Z,8.58
2023-01-11T09:02:01.078Z,8.50
2023-01-11T09:04:29.844Z,8.57
2023-01-11T09:06:58.254Z,8.56
2023-01-11T09:09:29.371Z,8.58
2023-01-11T09:12:01.072Z,8.57
2023-01-11T09:14:31.825Z,8.54
2023-01-11T09:17:00.292Z,8.65
2023-01-11T09:19:28.585Z,8.65
2023-01-11T09:22:00.614Z,8.58
2023-01-11T09:24:29.086Z,8.64
2023-01-11T09:27:00.859Z,8.63
2023-01-11T09:29:30.657Z,8.56
2023-01-11T09:32:00.631Z,8.59
2023-01-11T09:34:31.075Z,8.52
2023-01-11T09:37:02.567Z,8.54
2023-01-11T09:39:33.151Z,8.54
2023-01-11T09:42:15.843Z,8.55
2023-01-11T09:44:54.084Z,8.61
2023-01-11T09:47:32.615Z,8.58
2023-01-11T09:50:06.306Z,8.55
2023-01-11T09:52:39.945Z,8.55
2023-01-11T09:55:19.164Z,8.63
2023-01-11T09:57:56.785Z,8.64
2023-01-11T10:00:33.746Z,8.63
2023-01-11T10:03:22.079Z,8.62
2023-01-11T10:06:02.879Z,8.66
2023-01-11T10:18:22.463Z,8.63
2023-01-11T10:18:37.855Z,8.64
2023-01-11T10:20:56.912Z,8.61
2023-01-11T10:23:32.327Z,8.59
2023-01-11T10:26:07.213Z,8.67
2023-01-11T10:28:43.295Z,8.69
2023-01-11T10:31:29.880Z,8.76
2023-01-11T10:34:19.376Z,8.77
2023-01-11T10:37:17.127Z,8.76
2023-01-11T10:40:15.441Z,8.80
2023-01-11T10:42:49.199Z,8.81
2023-01-11T10:45:23.657Z,8.79
2023-01-11T10:47:58.710Z,8.88
2023-01-11T10:50:34.551Z,8.92
2023-01-11T10:53:14.749Z,8.99
2023-01-11T10:55:51.678Z,8.94
2023-01-11T10:58:38.300Z,9.00
2023-01-11T11:01:18.749Z,9.01
2023-01-11T11:04:15.306Z,9.06
2023-01-11T11:06:54.862Z,9.07
2023-01-11T11:09:30.923Z,9.15
2023-01-11T11:12:05.607Z,9.18
2023-01-11T11:14:39.824Z,9.40
2023-01-11T11:17:18.202Z,9.35
2023-01-11T11:19:46.909Z,9.35
2023-01-11T11:22:20.001Z,9.36
2023-01-11T11:24:51.899Z,9.37
2023-01-11T11:27:26.989Z,9.38
2023-01-11T11:29:58.131Z,9.46
2023-01-11T11:32:31.085Z,9.55
2023-01-11T11:35:00.185Z,9.63
2023-01-11T11:37:35.382Z,9.75
2023-01-11T11:40:05.682Z,9.70
2023-01-11T11:42:34.402Z,9.75
2023-01-11T11:45:16.391Z,9.84
2023-01-11T11:48:00.700Z,9.92
2023-01-11T11:50:44.256Z,9.90
2023-01-11T11:53:26.583Z,9.99
2023-01-11T11:55:56.778Z,9.83
2023-01-11T11:58:28.001Z,9.81
2023-01-11T12:00:56.720Z,9.79
2023-01-11T12:03:30.709Z,9.86
2023-01-11T12:06:02.607Z,9.82
2023-01-11T12:08:37.854Z,9.85
2023-01-11T12:11:08.981Z,9.93
2023-01-11T12:13:40.315Z,10.05
2023-01-11T12:16:20.829Z,9.93
2023-01-11T12:18:49.464Z,9.87
2023-01-11T12:21:21.351Z,9.84
2023-01-11T12:24:12.697Z,9.88
2023-01-11T12:26:53.017Z,9.84
2023-01-11T12:29:39.282Z,9.86
2023-01-11T12:32:32.610Z,9.73
2023-01-11T12:35:13.865Z,9.71
2023-01-11T12:37:58.910Z,9.71
2023-01-11T12:40:37.352Z,9.76
2023-01-11T12:43:21.689Z,9.65
2023-01-11T12:46:01.644Z,9.68
2023-01-11T12:48:50.316Z,9.67
2023-01-11T12:51:28.866Z,9.68
2023-01-11T12:54:10.113Z,9.72
2023-01-11T12:56:58.663Z,9.72
2023-01-11T12:59:52.126Z,9.80
2023-01-11T13:02:41.348Z,9.78
2023-01-11T13:05:28.373Z,9.76
2023-01-11T13:08:10.069Z,9.70
2023-01-11T13:10:52.423Z,9.73
2023-01-11T13:13:30.287Z,9.71
2023-01-11T13:16:07.281Z,9.72
2023-01-11T13:18:43.117Z,9.71
2023-01-11T13:21:25.114Z,9.80
2023-01-11T13:23:57.417Z,9.90
2023-01-11T13:26:32.369Z,9.92
2023-01-11T13:29:07.611Z,9.88
2023-01-11T13:31:37.332Z,9.88
2023-01-11T13:34:13.770Z,9.90
2023-01-11T13:36:47.024Z,9.87
2023-01-11T13:39:24.252Z,9.90
2023-01-11T13:41:56.629Z,9.94
2023-01-11T13:44:35.688Z,9.94
2023-01-11T13:47:11.018Z,9.98
2023-01-11T13:49:52.005Z,9.96
2023-01-11T13:52:26.092Z,10.03
2023-01-11T13:55:04.223Z,10.08
2023-01-11T13:57:45.307Z,10.11
2023-01-11T14:00:23.171Z,10.13
2023-01-11T14:02:58.668Z,10.13
2023-01-11T14:05:36.705Z,10.05
2023-01-11T14:08:22.607Z,10.04
2023-01-11T14:11:02.211Z,10.00
2023-01-11T14:14:04.609Z,9.98
2023-01-11T14:16:48.223Z,9.93
2023-01-11T14:19:23.982Z,9.87
2023-01-11T14:22:04.762Z,9.90
2023-01-11T14:24:36.633Z,9.83
2023-01-11T14:27:24.991Z,9.76
2023-01-11T14:30:18.347Z,9.71
2023-01-11T14:33:14.686Z,9.63
2023-01-11T14:36:06.968Z,9.54
2023-01-11T14:39:04.072Z,9.52
2023-01-11T14:41:59.924Z,9.45
2023-01-11T14:44:43.757Z,9.41
2023-01-11T14:47:41.400Z,9.39
2023-01-11T14:50:22.517Z,9.31
2023-01-11T14:52:57.109Z,9.28
2023-01-11T14:55:29.542Z,9.23
2023-01-11T14:58:03.852Z,9.20
2023-01-11T15:01:11.733Z,9.17
2023-01-11T15:03:49.044Z,9.18
2023-01-11T15:06:21.445Z,9.15
2023-01-11T15:08:53.795Z,9.10
2023-01-11T15:11:39.396Z,9.08
2023-01-11T15:14:29.524Z,8.98
2023-01-11T15:17:19.191Z,9.00
2023-01-11T15:19:49.004Z,8.90
2023-01-11T15:22:24.538Z,8.83
2023-01-11T15:24:59.658Z,8.77
2023-01-11T15:27:33.686Z,8.78
2023-01-11T15:30:05.958Z,8.73
2023-01-11T15:32:35.698Z,8.67
2023-01-11T15:35:33.762Z,8.55
2023-01-11T15:38:13.868Z,8.44
2023-01-11T15:40:46.473Z,8.35
2023-01-11T15:43:49.123Z,8.24
2023-01-11T15:46:56.047Z,8.26
2023-01-11T15:49:57.992Z,8.31
2023-01-11T15:53:11.344Z,8.29
2023-01-11T15:56:16.384Z,8.36
2023-01-11T15:59:05.793Z,8.36
2023-01-11T16:01:52.689Z,8.31
2023-01-11T16:04:28.536Z,8.24
2023-01-11T16:07:02.911Z,8.19
2023-01-11T16:09:57.568Z,8.11
2023-01-11T16:12:56.500Z,8.08
2023-01-11T16:15:43.596Z,8.04
2023-01-11T16:18:15.066Z,7.97
2023-01-11T16:20:57.159Z,7.93
2023-01-11T16:23:25.476Z,7.92
2023-01-11T16:25:58.315Z,7.88
2023-01-11T16:28:31.784Z,7.94
2023-01-11T16:31:02.340Z,8.11
2023-01-11T16:33:32.582Z,8.17
2023-01-11T16:36:15.701Z,8.15
2023-01-11T16:38:54.100Z,7.96
2023-01-11T16:41:27.688Z,7.88
2023-01-11T16:44:07.358Z,7.86
2023-01-11T16:47:07.790Z,7.78
2023-01-11T16:49:36.035Z,7.73
2023-01-11T16:52:37.086Z,7.66
2023-01-11T16:55:17.381Z,7.60
2023-01-11T16:57:50.443Z,7.53
2023-01-11T17:00:32.620Z,7.45
2023-01-11T17:03:19.874Z,7.40
2023-01-11T17:05:55.660Z,7.30
2023-01-11T17:08:32.891Z,7.27
2023-01-11T17:11:07.623Z,7.21
2023-01-11T17:14:00.295Z,7.19
2023-01-11T17:16:32.341Z,7.06
2023-01-11T17:19:09.569Z,6.96
2023-01-11T17:21:37.698Z,6.87
2023-01-11T17:24:07.844Z,6.80
2023-01-11T17:26:42.673Z,6.69
2023-01-11T17:29:20.171Z,6.59
2023-01-11T17:31:50.972Z,6.53
2023-01-11T17:34:24.695Z,6.40
2023-01-11T17:36:57.292Z,6.33
2023-01-11T17:39:30.814Z,6.30
2023-01-11T17:42:22.472Z,6.23
2023-01-11T17:45:10.605Z,6.15
2023-01-11T17:47:43.676Z,6.07
2023-01-11T17:50:27.627Z,6.11
2023-01-11T17:53:13.835Z,6.06
2023-01-11T17:55:51.992Z,6.15
2023-01-11T17:58:26.170Z,6.05
2023-01-11T18:01:15.652Z,5.95
2023-01-11T18:03:47.534Z,6.00
2023-01-11T18:06:24.822Z,5.93
2023-01-11T18:08:55.576Z,5.90
2023-01-11T18:11:28.015Z,5.96
2023-01-11T18:13:59.640Z,5.89
2023-01-11T18:16:31.388Z,5.82
2023-01-11T18:19:01.914Z,5.89
2023-01-11T18:21:43.418Z,5.93
2023-01-11T18:24:33.552Z,5.96
2023-01-11T18:27:20.722Z,5.97
2023-01-11T18:29:51.926Z,5.91
2023-01-11T18:32:21.375Z,5.88
2023-01-11T18:34:54.327Z,5.90
2023-01-11T18:37:23.997Z,5.79
2023-01-11T18:39:53.093Z,5.88
2023-01-11T18:42:28.001Z,5.90
2023-01-11T18:44:56.535Z,5.93
2023-01-11T18:47:29.339Z,5.97
2023-01-11T18:49:59.281Z,6.23
2023-01-11T18:52:30.195Z,6.37
2023-01-11T18:54:59.040Z,6.32
2023-01-11T18:57:27.887Z,6.29
2023-01-11T18:59:56.704Z,6.22
2023-01-11T19:02:30.475Z,6.15
2023-01-11T19:05:00.145Z,6.05
2023-01-11T19:07:28.753Z,6.02
2023-01-11T19:10:00.683Z,5.99
2023-01-11T19:12:29.460Z,5.99
2023-01-11T19:14:59.415Z,5.96
2023-01-11T19:17:29.431Z,5.96
2023-01-11T19:20:01.477Z,5.94
2023-01-11T19:22:31.680Z,5.94
2023-01-11T19:25:03.444Z,5.86
2023-01-11T19:27:32.454Z,5.93
2023-01-11T19:30:00.962Z,5.95
2023-01-11T19:32:29.370Z,6.00
2023-01-11T19:35:01.748Z,5.99
2023-01-11T19:37:34.084Z,6.13
2023-01-11T19:40:05.753Z,6.08
2023-01-11T19:42:34.096Z,6.11
2023-01-11T19:45:02.421Z,6.12
2023-01-11T19:47:31.552Z,5.94
2023-01-11T19:50:01.061Z,5.83
2023-01-11T19:52:29.778Z,5.99
2023-01-11T19:54:59.414Z,6.06
2023-01-11T19:57:29.612Z,6.01
2023-01-11T19:59:58.379Z,6.02
2023-01-11T20:02:26.843Z,6.08
2023-01-11T20:04:55.304Z,6.07
2023-01-11T20:07:23.735Z,6.10
2023-01-11T20:09:52.782Z,6.12
2023-01-11T20:12:22.362Z,6.20
2023-01-11T20:14:52.034Z,6.03
2023-01-11T20:17:27.991Z,5.93
2023-01-11T20:20:04.033Z,5.72
2023-01-11T20:22:36.452Z,5.55
2023-01-11T20:25:07.497Z,5.44
2023-01-11T20:27:38.702Z,5.42
2023-01-11T20:30:14.584Z,5.32
2023-01-11T20:32:43.231Z,5.29
2023-01-11T20:35:11.933Z,5.16
2023-01-11T20:37:40.248Z,5.16
2023-01-11T20:40:16.882Z,5.30
2023-01-11T20:42:47.189Z,5.37
2023-01-11T20:45:17.824Z,5.43
2023-01-11T20:47:49.856Z,5.55
2023-01-11T20:50:20.678Z,5.65
2023-01-11T20:52:51.888Z,5.59
2023-01-11T20:55:21.791Z,5.65
2023-01-11T20:57:52.808Z,5.65
2023-01-11T21:00:22.717Z,5.60
2023-01-11T21:02:51.577Z,5.61
2023-01-11T21:05:19.833Z,5.83
2023-01-11T21:07:53.227Z,5.84
2023-01-11T21:10:21.695Z,6.04
2023-01-11T21:12:56.542Z,6.15
2023-01-11T21:15:28.142Z,6.12
2023-01-11T21:17:56.435Z,6.09
2023-01-11T21:20:24.960Z,5.96
2023-01-11T21:22:53.617Z,5.80
2023-01-11T21:25:22.222Z,5.68
2023-01-11T21:27:50.308Z,5.63
2023-01-11T21:30:21.524Z,5.67
2023-01-11T21:32:51.586Z,5.69
2023-01-11T21:35:19.824Z,5.82
2023-01-11T21:37:48.098Z,5.85
2023-01-11T21:40:17.337Z,5.93
2023-01-11T21:42:47.498Z,6.02
2023-01-11T21:45:17.449Z,6.19
2023-01-11T21:47:47.663Z,6.30
2023-01-11T21:50:16.130Z,6.35
2023-01-11T21:52:44.425Z,6.43
2023-01-11T21:55:12.723Z,6.39
2023-01-11T21:57:41.264Z,6.33
2023-01-11T22:00:14.138Z,6.37
2023-01-11T22:02:42.955Z,6.42
2023-01-11T22:05:15.245Z,6.42
2023-01-11T22:07:57.386Z,6.43
2023-01-11T22:10:26.966Z,6.49
2023-01-11T22:12:57.437Z,6.56
2023-01-11T22:15:25.694Z,6.56
2023-01-11T22:17:53.939Z,6.63
2023-01-11T22:20:24.115Z,6.60
2023-01-11T22:22:52.236Z,6.62
2023-01-11T22:25:20.831Z,6.62
2023-01-11T22:27:49.430Z,6.61
2023-01-11T22:30:18.256Z,6.55
2023-01-11T22:32:47.949Z,6.54
2023-01-11T22:35:17.662Z,6.56
2023-01-11T22:37:49.630Z,6.59
2023-01-11T22:40:18.589Z,6.59
2023-01-11T22:42:47.413Z,6.54
2023-01-11T22:45:15.855Z,6.58
2023-01-11T22:47:44.265Z,6.55
2023-01-11T22:50:12.789Z,6.57
2023-01-11T22:52:40.966Z,6.51
2023-01-11T22:55:12.349Z,6.50
2023-01-11T22:57:40.950Z,6.50
2023-01-11T23:00:15.381Z,6.46
2023-01-11T23:02:44.498Z,6.46
2023-01-11T23:05:12.759Z,6.50
2023-01-11T23:07:44.435Z,6.49
2023-01-11T23:10:14.835Z,6.50
2023-01-11T23:13:12.222Z,6.51
2023-01-11T23:15:40.983Z,6.54
2023-01-11T23:18:30.104Z,6.56
2023-01-11T23:21:03.747Z,6.64
2023-01-11T23:23:32.312Z,6.57
2023-01-11T23:26:01.915Z,6.57
2023-01-11T23:28:32.786Z,6.62
2023-01-11T23:31:01.737Z,6.55
2023-01-11T23:33:30.225Z,6.55
2023-01-11T23:36:00.081Z,6.57
2023-01-11T23:38:28.361Z,6.52
2023-01-11T23:41:19.769Z,6.47
2023-01-11T23:43:49.468Z,6.51
2023-01-11T23:46:34.911Z,6.52
2023-01-11T23:49:06.360Z,6.55
2023-01-11T23:51:35.205Z,6.54
2023-01-11T23:54:05.373Z,6.53
2023-01-11T23:56:35.786Z,6.53
2023-01-11T23:59:07.781Z,6.50
